Warwick, Canada
Current Conditions -  °F | °C
As of 3:00 PM on Friday 31 Oct 2014 (Local Time) from CYSC Reporting Station
Overcast Overcast  
Wind Chill: 40°   Ceiling: 4100
Heat Index: 43°   Visibility: 9mi
Dew Point: 28°   Wind: 5mph
Humidity: 57%   Direction: 10°N
Pressure: 30.02"   Gusts: NA
Location:  45.95°N, 71.98°W
Report Text: CYSC 311900Z AUTO 01004KT 320V030 9SM OVC041 06/M02 A3002 RMK SLP174
Loading
Personal Weather Stations






























Interactive Weather Map
Tropical Storm Tracking
New forecast layout! Learn more

10-Day Weather Forecast

Advertisements
Track Severe Weather on mobile